sensor_id;sensor_type;location;lat;lon;timestamp;pressure;altitude;pressure_sealevel;temperature;humidity
56944;BME280;42848;42.524;12.052;2023-07-13T00:02:24;96688.13;;;25.80;69.90
56944;BME280;42848;42.524;12.052;2023-07-13T00:04:52;96698.75;;;25.86;69.39
56944;BME280;42848;42.524;12.052;2023-07-13T00:07:17;96693.25;;;26.09;69.05
56944;BME280;42848;42.524;12.052;2023-07-13T00:09:46;96695.53;;;25.91;69.89
56944;BME280;42848;42.524;12.052;2023-07-13T00:12:28;96705.44;;;25.92;69.36
56944;BME280;42848;42.524;12.052;2023-07-13T00:14:59;96701.94;;;26.11;68.46
56944;BME280;42848;42.524;12.052;2023-07-13T00:17:26;96704.13;;;26.00;67.06
56944;BME280;42848;42.524;12.052;2023-07-13T00:19:53;96695.78;;;26.00;67.44
56944;BME280;42848;42.524;12.052;2023-07-13T00:22:21;96709.44;;;25.91;66.20
56944;BME280;42848;42.524;12.052;2023-07-13T00:24:47;96712.84;;;26.25;66.18
56944;BME280;42848;42.524;12.052;2023-07-13T00:27:13;96704.94;;;25.97;65.28
56944;BME280;42848;42.524;12.052;2023-07-13T00:29:39;96703.63;;;26.05;65.78
56944;BME280;42848;42.524;12.052;2023-07-13T00:32:07;96697.78;;;25.99;66.07
56944;BME280;42848;42.524;12.052;2023-07-13T00:34:35;96694.09;;;26.06;65.64
56944;BME280;42848;42.524;12.052;2023-07-13T00:37:01;96697.22;;;26.08;64.83
56944;BME280;42848;42.524;12.052;2023-07-13T00:39:27;96704.84;;;26.27;66.15
56944;BME280;42848;42.524;12.052;2023-07-13T00:41:53;96714.19;;;26.17;64.89
56944;BME280;42848;42.524;12.052;2023-07-13T00:44:19;96713.44;;;26.13;64.64
56944;BME280;42848;42.524;12.052;2023-07-13T00:46:48;96718.34;;;26.29;64.76
56944;BME280;42848;42.524;12.052;2023-07-13T00:49:17;96721.91;;;26.29;65.49
56944;BME280;42848;42.524;12.052;2023-07-13T00:51:55;96730.13;;;26.13;64.64
56944;BME280;42848;42.524;12.052;2023-07-13T00:54:35;96741.38;;;26.06;66.92
56944;BME280;42848;42.524;12.052;2023-07-13T00:57:05;96733.59;;;26.21;65.17
56944;BME280;42848;42.524;12.052;2023-07-13T00:59:34;96734.97;;;26.09;66.85
56944;BME280;42848;42.524;12.052;2023-07-13T01:02:00;96730.88;;;26.41;65.63
56944;BME280;42848;42.524;12.052;2023-07-13T01:04:26;96739.56;;;26.19;67.43
56944;BME280;42848;42.524;12.052;2023-07-13T01:06:53;96738.91;;;26.12;67.51
56944;BME280;42848;42.524;12.052;2023-07-13T01:09:19;96729.59;;;26.22;68.36
56944;BME280;42848;42.524;12.052;2023-07-13T01:11:47;96725.31;;;26.17;68.52
56944;BME280;42848;42.524;12.052;2023-07-13T01:14:13;96723.00;;;25.85;70.24
56944;BME280;42848;42.524;12.052;2023-07-13T01:16:41;96730.38;;;25.72;70.88
56944;BME280;42848;42.524;12.052;2023-07-13T01:19:25;96725.88;;;26.05;69.49
56944;BME280;42848;42.524;12.052;2023-07-13T01:21:55;96733.97;;;25.96;70.87
56944;BME280;42848;42.524;12.052;2023-07-13T01:24:21;96730.72;;;26.01;70.90
56944;BME280;42848;42.524;12.052;2023-07-13T01:26:46;96726.28;;;25.80;72.46
56944;BME280;42848;42.524;12.052;2023-07-13T01:29:12;96722.72;;;25.79;72.43
56944;BME280;42848;42.524;12.052;2023-07-13T01:31:37;96728.69;;;25.78;72.93
56944;BME280;42848;42.524;12.052;2023-07-13T01:34:03;96726.84;;;25.95;72.79
56944;BME280;42848;42.524;12.052;2023-07-13T01:36:29;96719.94;;;25.79;73.86
56944;BME280;42848;42.524;12.052;2023-07-13T01:38:54;96726.03;;;25.71;74.28
56944;BME280;42848;42.524;12.052;2023-07-13T01:41:20;96717.16;;;25.49;75.31
56944;BME280;42848;42.524;12.052;2023-07-13T01:43:46;96704.09;;;25.46;76.11
56944;BME280;42848;42.524;12.052;2023-07-13T01:46:11;96715.72;;;25.37;77.02
56944;BME280;42848;42.524;12.052;2023-07-13T01:48:37;96710.00;;;25.48;77.07
56944;BME280;42848;42.524;12.052;2023-07-13T01:51:03;96692.69;;;25.37;77.55
56944;BME280;42848;42.524;12.052;2023-07-13T01:53:28;96684.94;;;25.24;78.86
56944;BME280;42848;42.524;12.052;2023-07-13T01:55:54;96702.03;;;25.50;77.74
56944;BME280;42848;42.524;12.052;2023-07-13T01:58:20;96705.78;;;25.70;76.77
56944;BME280;42848;42.524;12.052;2023-07-13T02:00:48;96691.75;;;25.47;78.54
56944;BME280;42848;42.524;12.052;2023-07-13T02:03:15;96684.09;;;25.28;80.51
56944;BME280;42848;42.524;12.052;2023-07-13T02:05:44;96675.09;;;25.47;80.18
56944;BME280;42848;42.524;12.052;2023-07-13T02:08:10;96685.88;;;25.41;81.23
56944;BME280;42848;42.524;12.052;2023-07-13T02:10:37;96701.31;;;25.46;80.50
56944;BME280;42848;42.524;12.052;2023-07-13T02:13:05;96700.47;;;25.79;79.86
56944;BME280;42848;42.524;12.052;2023-07-13T02:15:31;96694.97;;;25.45;82.08
56944;BME280;42848;42.524;12.052;2023-07-13T02:17:57;96690.91;;;25.50;82.75
56944;BME280;42848;42.524;12.052;2023-07-13T02:20:25;96691.94;;;25.33;84.23
56944;BME280;42848;42.524;12.052;2023-07-13T02:22:52;96691.22;;;25.29;84.88
56944;BME280;42848;42.524;12.052;2023-07-13T02:25:17;96701.41;;;25.39;85.73
56944;BME280;42848;42.524;12.052;2023-07-13T02:27:44;96696.88;;;25.52;87.15
56944;BME280;42848;42.524;12.052;2023-07-13T02:30:11;96696.78;;;25.29;89.72
56944;BME280;42848;42.524;12.052;2023-07-13T02:32:36;96693.06;;;25.39;90.52
56944;BME280;42848;42.524;12.052;2023-07-13T02:35:02;96703.81;;;25.37;91.80
56944;BME280;42848;42.524;12.052;2023-07-13T02:37:29;96699.56;;;25.29;93.97
56944;BME280;42848;42.524;12.052;2023-07-13T02:39:55;96700.28;;;25.33;94.73
56944;BME280;42848;42.524;12.052;2023-07-13T02:42:21;96699.28;;;25.19;96.36
56944;BME280;42848;42.524;12.052;2023-07-13T02:44:46;96702.47;;;25.18;97.63
56944;BME280;42848;42.524;12.052;2023-07-13T02:47:12;96691.22;;;25.29;97.95
56944;BME280;42848;42.524;12.052;2023-07-13T02:49:38;96693.44;;;25.41;97.05
56944;BME280;42848;42.524;12.052;2023-07-13T02:52:04;96684.25;;;25.17;100.00
56944;BME280;42848;42.524;12.052;2023-07-13T02:54:30;96688.16;;;25.19;100.00
56944;BME280;42848;42.524;12.052;2023-07-13T02:56:56;96682.97;;;25.21;100.00
56944;BME280;42848;42.524;12.052;2023-07-13T02:59:21;96696.06;;;25.24;100.00
56944;BME280;42848;42.524;12.052;2023-07-13T03:01:47;96687.81;;;25.14;100.00
56944;BME280;42848;42.524;12.052;2023-07-13T03:04:12;96687.03;;;25.13;100.00
56944;BME280;42848;42.524;12.052;2023-07-13T03:06:38;96680.88;;;25.29;100.00
56944;BME280;42848;42.524;12.052;2023-07-13T03:09:03;96674.69;;;25.18;100.00
56944;BME280;42848;42.524;12.052;2023-07-13T03:11:29;96687.66;;;25.28;100.00
56944;BME280;42848;42.524;12.052;2023-07-13T03:13:55;96682.66;;;25.16;100.00
56944;BME280;42848;42.524;12.052;2023-07-13T03:16:21;96671.84;;;25.21;100.00
56944;BME280;42848;42.524;12.052;2023-07-13T03:18:47;96687.28;;;25.26;100.00
56944;BME280;42848;42.524;12.052;2023-07-13T03:21:13;96688.16;;;25.19;100.00
56944;BME280;42848;42.524;12.052;2023-07-13T03:23:39;96693.63;;;25.27;100.00
56944;BME280;42848;42.524;12.052;2023-07-13T03:26:14;96696.06;;;25.24;100.00
56944;BME280;42848;42.524;12.052;2023-07-13T03:28:41;96687.72;;;25.24;100.00
56944;BME280;42848;42.524;12.052;2023-07-13T03:31:10;96683.72;;;25.26;100.00
56944;BME280;42848;42.524;12.052;2023-07-13T03:33:37;96686.59;;;25.18;100.00
56944;BME280;42848;42.524;12.052;2023-07-13T03:36:06;96688.91;;;25.23;100.00
56944;BME280;42848;42.524;12.052;2023-07-13T03:38:33;96700.00;;;25.23;100.00
56944;BME280;42848;42.524;12.052;2023-07-13T03:41:00;96688.53;;;25.21;100.00
56944;BME280;42848;42.524;12.052;2023-07-13T03:43:26;96692.78;;;25.30;100.00
56944;BME280;42848;42.524;12.052;2023-07-13T03:45:51;96692.50;;;25.20;100.00
56944;BME280;42848;42.524;12.052;2023-07-13T03:48:17;96691.38;;;25.18;100.00
56944;BME280;42848;42.524;12.052;2023-07-13T03:50:43;96692.09;;;25.22;100.00
56944;BME280;42848;42.524;12.052;2023-07-13T03:53:08;96689.00;;;25.16;100.00
56944;BME280;42848;42.524;12.052;2023-07-13T03:55:34;96685.81;;;25.18;100.00
56944;BME280;42848;42.524;12.052;2023-07-13T03:58:28;96698.44;;;25.22;100.00
56944;BME280;42848;42.524;12.052;2023-07-13T04:00:55;96694.16;;;25.14;100.00
56944;BME280;42848;42.524;12.052;2023-07-13T04:03:21;96705.63;;;25.20;100.00
56944;BME280;42848;42.524;12.052;2023-07-13T04:05:47;96709.66;;;25.15;100.00
56944;BME280;42848;42.524;12.052;2023-07-13T04:08:13;96717.53;;;25.20;100.00
56944;BME280;42848;42.524;12.052;2023-07-13T04:10:38;96707.69;;;25.12;100.00
56944;BME280;42848;42.524;12.052;2023-07-13T04:13:05;96694.09;;;25.21;100.00
56944;BME280;42848;42.524;12.052;2023-07-13T04:15:31;96687.44;;;25.15;100.00
56944;BME280;42848;42.524;12.052;2023-07-13T04:17:58;96682.25;;;25.17;100.00
56944;BME280;42848;42.524;12.052;2023-07-13T04:20:26;96687.81;;;25.17;100.00
56944;BME280;42848;42.524;12.052;2023-07-13T04:22:52;96679.88;;;25.16;100.00
56944;BME280;42848;42.524;12.052;2023-07-13T04:25:20;96700.00;;;25.23;100.00
56944;BME280;42848;42.524;12.052;2023-07-13T04:27:46;96698.84;;;25.24;100.00
56944;BME280;42848;42.524;12.052;2023-07-13T04:30:11;96689.66;;;25.28;100.00
56944;BME280;42848;42.524;12.052;2023-07-13T04:32:37;96694.38;;;25.31;100.00
56944;BME280;42848;42.524;12.052;2023-07-13T04:35:03;96689.66;;;25.28;100.00
56944;BME280;42848;42.524;12.052;2023-07-13T04:37:29;96705.47;;;25.31;100.00
56944;BME280;42848;42.524;12.052;2023-07-13T04:39:55;96704.94;;;25.43;100.00
56944;BME280;42848;42.524;12.052;2023-07-13T04:42:21;96706.13;;;25.42;100.00
56944;BME280;42848;42.524;12.052;2023-07-13T04:44:49;96704.66;;;25.34;100.00
56944;BME280;42848;42.524;12.052;2023-07-13T04:47:14;96704.59;;;25.37;98.93
56944;BME280;42848;42.524;12.052;2023-07-13T04:49:40;96701.50;;;25.32;98.71
56944;BME280;42848;42.524;12.052;2023-07-13T04:52:06;96703.91;;;25.30;96.09
56944;BME280;42848;42.524;12.052;2023-07-13T04:54:34;96695.47;;;25.37;94.38
56944;BME280;42848;42.524;12.052;2023-07-13T04:57:00;96706.13;;;25.42;94.53
56944;BME280;42848;42.524;12.052;2023-07-13T04:59:26;96712.88;;;25.41;94.14
56944;BME280;42848;42.524;12.052;2023-07-13T05:01:52;96706.38;;;25.51;92.67
56944;BME280;42848;42.524;12.052;2023-07-13T05:04:18;96710.78;;;25.48;93.08
56944;BME280;42848;42.524;12.052;2023-07-13T05:06:44;96710.78;;;25.48;92.01
56944;BME280;42848;42.524;12.052;2023-07-13T05:09:10;96713.44;;;25.59;92.51
56944;BME280;42848;42.524;12.052;2023-07-13T05:11:35;96719.41;;;25.58;91.75
56944;BME280;42848;42.524;12.052;2023-07-13T05:14:01;96718.47;;;25.68;89.88
56944;BME280;42848;42.524;12.052;2023-07-13T05:16:27;96732.00;;;25.66;89.71
56944;BME280;42848;42.524;12.052;2023-07-13T05:18:53;96725.59;;;25.72;89.59
56944;BME280;42848;42.524;12.052;2023-07-13T05:21:19;96737.44;;;25.76;89.77
56944;BME280;42848;42.524;12.052;2023-07-13T05:23:45;96728.38;;;25.72;88.81
56944;BME280;42848;42.524;12.052;2023-07-13T05:26:11;96728.69;;;25.78;87.95
56944;BME280;42848;42.524;12.052;2023-07-13T05:28:37;96716.75;;;25.77;88.44
56944;BME280;42848;42.524;12.052;2023-07-13T05:31:04;96717.97;;;25.76;88.27
56944;BME280;42848;42.524;12.052;2023-07-13T05:33:30;96717.50;;;25.82;87.06
56944;BME280;42848;42.524;12.052;2023-07-13T05:35:55;96703.19;;;25.83;87.83
56944;BME280;42848;42.524;12.052;2023-07-13T05:38:21;96690.78;;;25.88;87.89
56944;BME280;42848;42.524;12.052;2023-07-13T05:40:47;96688.75;;;25.92;86.50
56944;BME280;42848;42.524;12.052;2023-07-13T05:43:13;96688.75;;;25.92;86.59
56944;BME280;42848;42.524;12.052;2023-07-13T05:45:39;96692.63;;;25.98;85.42
56944;BME280;42848;42.524;12.052;2023-07-13T05:48:05;96709.25;;;26.01;86.03
56944;BME280;42848;42.524;12.052;2023-07-13T05:50:31;96703.16;;;26.10;86.90
56944;BME280;42848;42.524;12.052;2023-07-13T05:52:57;96711.03;;;26.15;86.39
56944;BME280;42848;42.524;12.052;2023-07-13T05:55:22;96697.84;;;26.19;85.12
56944;BME280;42848;42.524;12.052;2023-07-13T05:57:48;96699.84;;;26.19;85.66
56944;BME280;42848;42.524;12.052;2023-07-13T06:00:14;96701.75;;;26.22;84.49
56944;BME280;42848;42.524;12.052;2023-07-13T06:02:40;96703.28;;;26.26;84.74
56944;BME280;42848;42.524;12.052;2023-07-13T06:05:06;96716.28;;;26.33;85.43
56944;BME280;42848;42.524;12.052;2023-07-13T06:07:32;96714.31;;;26.33;85.19
56944;BME280;42848;42.524;12.052;2023-07-13T06:09:57;96729.00;;;26.34;83.44
56944;BME280;42848;42.524;12.052;2023-07-13T06:12:25;96729.63;;;26.45;84.29
56944;BME280;42848;42.524;12.052;2023-07-13T06:14:51;96726.34;;;26.50;85.55
56944;BME280;42848;42.524;12.052;2023-07-13T06:17:16;96731.50;;;26.52;84.53
56944;BME280;42848;42.524;12.052;2023-07-13T06:19:42;96731.31;;;26.62;84.82
56944;BME280;42848;42.524;12.052;2023-07-13T06:22:08;96730.16;;;26.60;85.86
56944;BME280;42848;42.524;12.052;2023-07-13T06:24:33;96721.19;;;26.72;84.35
56944;BME280;42848;42.524;12.052;2023-07-13T06:26:59;96711.91;;;26.79;84.01
56944;BME280;42848;42.524;12.052;2023-07-13T06:29:24;96718.84;;;26.71;85.72
56944;BME280;42848;42.524;12.052;2023-07-13T06:31:50;96711.31;;;26.68;82.95
56944;BME280;42848;42.524;12.052;2023-07-13T06:34:15;96735.09;;;26.52;80.88
56944;BME280;42848;42.524;12.052;2023-07-13T06:36:41;96724.19;;;26.61;81.77
56944;BME280;42848;42.524;12.052;2023-07-13T06:39:07;96725.56;;;26.73;81.78
56944;BME280;42848;42.524;12.052;2023-07-13T06:41:34;96717.41;;;26.82;82.65
56944;BME280;42848;42.524;12.052;2023-07-13T06:43:59;96722.88;;;26.89;81.55
56944;BME280;42848;42.524;12.052;2023-07-13T06:46:25;96721.56;;;26.94;83.15
56944;BME280;42848;42.524;12.052;2023-07-13T06:48:51;96715.34;;;26.86;80.14
56944;BME280;42848;42.524;12.052;2023-07-13T06:51:17;96728.28;;;26.97;79.54
56944;BME280;42848;42.524;12.052;2023-07-13T06:53:43;96727.88;;;26.98;79.57
56944;BME280;42848;42.524;12.052;2023-07-13T06:56:10;96725.69;;;27.09;80.76
56944;BME280;42848;42.524;12.052;2023-07-13T06:58:36;96725.38;;;27.24;81.24
56944;BME280;42848;42.524;12.052;2023-07-13T07:01:03;96732.81;;;27.30;80.79
56944;BME280;42848;42.524;12.052;2023-07-13T07:03:29;96724.84;;;27.48;84.05
56944;BME280;42848;42.524;12.052;2023-07-13T07:06:00;96729.66;;;27.48;82.26
56944;BME280;42848;42.524;12.052;2023-07-13T07:08:26;96732.00;;;27.49;84.32
56944;BME280;42848;42.524;12.052;2023-07-13T07:10:52;96725.78;;;27.42;83.32
56944;BME280;42848;42.524;12.052;2023-07-13T07:13:19;96730.56;;;27.25;81.15
56944;BME280;42848;42.524;12.052;2023-07-13T07:15:46;96743.09;;;27.33;82.30
56944;BME280;42848;42.524;12.052;2023-07-13T07:18:11;96722.31;;;27.18;83.90
56944;BME280;42848;42.524;12.052;2023-07-13T07:20:37;96711.88;;;27.22;85.07
56944;BME280;42848;42.524;12.052;2023-07-13T07:23:03;96721.22;;;27.32;83.85
56944;BME280;42848;42.524;12.052;2023-07-13T07:25:28;96714.72;;;27.38;84.31
56944;BME280;42848;42.524;12.052;2023-07-13T07:27:57;96729.88;;;27.37;84.75
56944;BME280;42848;42.524;12.052;2023-07-13T07:30:24;96733.44;;;27.58;82.46
56944;BME280;42848;42.524;12.052;2023-07-13T07:32:50;96748.13;;;27.78;82.75
56944;BME280;42848;42.524;12.052;2023-07-13T07:35:15;96742.06;;;27.83;82.14
56944;BME280;42848;42.524;12.052;2023-07-13T07:37:41;96725.66;;;27.85;82.35
56944;BME280;42848;42.524;12.052;2023-07-13T07:40:07;96736.06;;;27.65;81.85
56944;BME280;42848;42.524;12.052;2023-07-13T07:42:33;96734.00;;;27.69;81.79
56944;BME280;42848;42.524;12.052;2023-07-13T07:44:59;96747.09;;;27.72;83.58
56944;BME280;42848;42.524;12.052;2023-07-13T07:47:26;96746.75;;;27.86;83.48
56944;BME280;42848;42.524;12.052;2023-07-13T07:49:51;96747.81;;;27.92;84.10
56944;BME280;42848;42.524;12.052;2023-07-13T07:52:18;96741.22;;;28.02;83.97
56944;BME280;42848;42.524;12.052;2023-07-13T07:54:44;96746.38;;;28.20;84.26
56944;BME280;42848;42.524;12.052;2023-07-13T07:57:10;96747.41;;;28.10;83.12
56944;BME280;42848;42.524;12.052;2023-07-13T07:59:37;96747.84;;;28.09;85.26
56944;BME280;42848;42.524;12.052;2023-07-13T08:02:04;96761.09;;;28.04;87.40
56944;BME280;42848;42.524;12.052;2023-07-13T08:04:29;96744.59;;;27.94;89.62
56944;BME280;42848;42.524;12.052;2023-07-13T08:06:55;96729.69;;;27.84;90.25
56944;BME280;42848;42.524;12.052;2023-07-13T08:09:23;96725.66;;;27.85;94.55
56944;BME280;42848;42.524;12.052;2023-07-13T08:11:49;96745.00;;;27.76;94.04
56944;BME280;42848;42.524;12.052;2023-07-13T08:14:16;96748.06;;;27.82;94.85
56944;BME280;42848;42.524;12.052;2023-07-13T08:16:42;96754.50;;;27.78;94.33
56944;BME280;42848;42.524;12.052;2023-07-13T08:19:07;96760.16;;;27.75;95.78
56944;BME280;42848;42.524;12.052;2023-07-13T08:21:33;96772.81;;;27.80;96.16
56944;BME280;42848;42.524;12.052;2023-07-13T08:23:58;96751.53;;;27.69;97.19
56944;BME280;42848;42.524;12.052;2023-07-13T08:26:24;96724.56;;;27.63;98.89
56944;BME280;42848;42.524;12.052;2023-07-13T08:28:49;96732.44;;;27.68;99.06
56944;BME280;42848;42.524;12.052;2023-07-13T08:31:15;96726.00;;;27.71;100.00
56944;BME280;42848;42.524;12.052;2023-07-13T08:33:40;96762.28;;;27.71;99.83
56944;BME280;42848;42.524;12.052;2023-07-13T08:36:06;96774.41;;;27.81;100.00
56944;BME280;42848;42.524;12.052;2023-07-13T08:38:32;96754.78;;;27.84;100.00
56944;BME280;42848;42.524;12.052;2023-07-13T08:40:58;96763.06;;;27.88;100.00
56944;BME280;42848;42.524;12.052;2023-07-13T08:43:34;96778.72;;;28.01;100.00
56944;BME280;42848;42.524;12.052;2023-07-13T08:48:39;96773.34;;;28.27;100.00
56944;BME280;42848;42.524;12.052;2023-07-13T08:54:24;96749.06;;;28.73;100.00
56944;BME280;42848;42.524;12.052;2023-07-13T08:56:53;96738.25;;;28.75;100.00
56944;BME280;42848;42.524;12.052;2023-07-13T08:59:27;96731.44;;;28.76;100.00
56944;BME280;42848;42.524;12.052;2023-07-13T09:10:21;96747.50;;;29.17;100.00
56944;BME280;42848;42.524;12.052;2023-07-13T09:13:22;96753.63;;;29.12;100.00
56944;BME280;42848;42.524;12.052;2023-07-13T09:15:50;96737.13;;;29.17;100.00
56944;BME280;42848;42.524;12.052;2023-07-13T09:18:34;96740.16;;;28.94;100.00
56944;BME280;42848;42.524;12.052;2023-07-13T09:21:23;96738.72;;;28.86;100.00
56944;BME280;42848;42.524;12.052;2023-07-13T09:23:55;96724.28;;;28.75;100.00
56944;BME280;42848;42.524;12.052;2023-07-13T09:26:23;96717.13;;;28.74;100.00
56944;BME280;42848;42.524;12.052;2023-07-13T09:28:55;96711.91;;;28.88;100.00
56944;BME280;42848;42.524;12.052;2023-07-13T09:31:40;96701.81;;;28.95;100.00
56944;BME280;42848;42.524;12.052;2023-07-13T09:34:12;96702.63;;;29.08;100.00
56944;BME280;42848;42.524;12.052;2023-07-13T09:36:38;96702.72;;;29.04;100.00
56944;BME280;42848;42.524;12.052;2023-07-13T09:41:53;96705.59;;;28.72;100.00
56944;BME280;42848;42.524;12.052;2023-07-13T09:44:30;96713.09;;;28.75;100.00
56944;BME280;42848;42.524;12.052;2023-07-13T09:46:57;96718.09;;;28.67;100.00
56944;BME280;42848;42.524;12.052;2023-07-13T09:49:28;96731.88;;;28.91;100.00
56944;BME280;42848;42.524;12.052;2023-07-13T09:52:00;96745.56;;;28.85;100.00
56944;BME280;42848;42.524;12.052;2023-07-13T09:54:27;96751.31;;;28.94;100.00
56944;BME280;42848;42.524;12.052;2023-07-13T09:56:57;96738.91;;;28.95;100.00
56944;BME280;42848;42.524;12.052;2023-07-13T09:59:32;96740.84;;;28.82;100.00
56944;BME280;42848;42.524;12.052;2023-07-13T10:01:58;96749.22;;;28.82;100.00
56944;BME280;42848;42.524;12.052;2023-07-13T10:04:42;96752.69;;;29.02;100.00
56944;BME280;42848;42.524;12.052;2023-07-13T10:07:12;96749.78;;;29.06;100.00
56944;BME280;42848;42.524;12.052;2023-07-13T10:09:41;96750.66;;;29.32;100.00
56944;BME280;42848;42.524;12.052;2023-07-13T10:12:15;96741.13;;;29.58;100.00
56944;BME280;42848;42.524;12.052;2023-07-13T10:14:43;96735.06;;;29.47;100.00
56944;BME280;42848;42.524;12.052;2023-07-13T10:17:13;96746.31;;;29.31;100.00
56944;BME280;42848;42.524;12.052;2023-07-13T10:19:41;96745.28;;;29.25;100.00
56944;BME280;42848;42.524;12.052;2023-07-13T10:22:27;96757.16;;;29.29;100.00
56944;BME280;42848;42.524;12.052;2023-07-13T10:24:55;96754.91;;;29.24;100.00
56944;BME280;42848;42.524;12.052;2023-07-13T10:27:39;96742.69;;;29.17;100.00
56944;BME280;42848;42.524;12.052;2023-07-13T10:30:13;96767.88;;;29.17;100.00
56944;BME280;42848;42.524;12.052;2023-07-13T10:32:40;96748.13;;;29.37;100.00
56944;BME280;42848;42.524;12.052;2023-07-13T10:35:10;96761.56;;;29.13;100.00
56944;BME280;42848;42.524;12.052;2023-07-13T10:37:49;96764.19;;;29.21;100.00
56944;BME280;42848;42.524;12.052;2023-07-13T10:40:26;96758.59;;;29.21;100.00
56944;BME280;42848;42.524;12.052;2023-07-13T10:42:57;96758.44;;;29.11;100.00
56944;BME280;42848;42.524;12.052;2023-07-13T10:45:24;96765.97;;;28.98;100.00
56944;BME280;42848;42.524;12.052;2023-07-13T10:47:54;96770.16;;;29.06;100.00
56944;BME280;42848;42.524;12.052;2023-07-13T10:50:25;96761.97;;;28.99;100.00
56944;BME280;42848;42.524;12.052;2023-07-13T10:52:54;96760.50;;;28.95;100.00
56944;BME280;42848;42.524;12.052;2023-07-13T10:55:35;96764.06;;;28.79;100.00
56944;BME280;42848;42.524;12.052;2023-07-13T10:58:03;96762.75;;;29.00;100.00
56944;BME280;42848;42.524;12.052;2023-07-13T11:00:46;96772.94;;;29.06;100.00
56944;BME280;42848;42.524;12.052;2023-07-13T11:03:15;96776.38;;;28.98;100.00
56944;BME280;42848;42.524;12.052;2023-07-13T11:05:43;96769.00;;;29.20;100.00
56944;BME280;42848;42.524;12.052;2023-07-13T11:08:33;96778.75;;;28.99;100.00
56944;BME280;42848;42.524;12.052;2023-07-13T11:11:03;96757.25;;;28.96;100.00
56944;BME280;42848;42.524;12.052;2023-07-13T11:19:23;96775.06;;;28.86;100.00
56944;BME280;42848;42.524;12.052;2023-07-13T11:35:45;96754.56;;;28.93;100.00
56944;BME280;42848;42.524;12.052;2023-07-13T11:38:18;96750.59;;;29.06;100.00
56944;BME280;42848;42.524;12.052;2023-07-13T11:40:47;96748.31;;;29.30;100.00
56944;BME280;42848;42.524;12.052;2023-07-13T11:43:16;96748.22;;;29.05;100.00
56944;BME280;42848;42.524;12.052;2023-07-13T11:46:13;96757.88;;;29.16;100.00
56944;BME280;42848;42.524;12.052;2023-07-13T11:48:39;96745.69;;;29.10;100.00
56944;BME280;42848;42.524;12.052;2023-07-13T11:51:06;96740.25;;;29.20;100.00
56944;BME280;42848;42.524;12.052;2023-07-13T11:53:45;96740.28;;;29.32;100.00
56944;BME280;42848;42.524;12.052;2023-07-13T11:56:12;96735.66;;;29.26;100.00
56944;BME280;42848;42.524;12.052;2023-07-13T11:58:39;96739.91;;;29.17;100.00
56944;BME280;42848;42.524;12.052;2023-07-13T12:01:05;96725.28;;;29.26;100.00
56944;BME280;42848;42.524;12.052;2023-07-13T12:03:32;96727.41;;;29.35;100.00
56944;BME280;42848;42.524;12.052;2023-07-13T12:06:06;96729.00;;;29.07;100.00
56944;BME280;42848;42.524;12.052;2023-07-13T12:08:44;96736.06;;;29.11;100.00
56944;BME280;42848;42.524;12.052;2023-07-13T12:11:18;96739.50;;;29.32;100.00
56944;BME280;42848;42.524;12.052;2023-07-13T12:13:44;96737.44;;;29.20;100.00
56944;BME280;42848;42.524;12.052;2023-07-13T12:16:30;96738.03;;;29.27;100.00
56944;BME280;42848;42.524;12.052;2023-07-13T12:18:59;96740.97;;;29.91;100.00
56944;BME280;42848;42.524;12.052;2023-07-13T12:21:38;96748.22;;;29.88;100.00
56944;BME280;42848;42.524;12.052;2023-07-13T12:24:11;96748.81;;;30.21;100.00
56944;BME280;42848;42.524;12.052;2023-07-13T12:26:39;96749.44;;;30.51;100.00
56944;BME280;42848;42.524;12.052;2023-07-13T12:29:06;96760.31;;;30.49;100.00
56944;BME280;42848;42.524;12.052;2023-07-13T12:31:37;96761.06;;;30.62;100.00
56944;BME280;42848;42.524;12.052;2023-07-13T12:34:13;96764.38;;;30.22;100.00
56944;BME280;42848;42.524;12.052;2023-07-13T12:37:00;96761.75;;;29.64;100.00
56944;BME280;42848;42.524;12.052;2023-07-13T12:39:39;96763.38;;;30.16;100.00
56944;BME280;42848;42.524;12.052;2023-07-13T12:42:29;96761.56;;;30.35;100.00
56944;BME280;42848;42.524;12.052;2023-07-13T12:45:21;96761.81;;;30.15;100.00
56944;BME280;42848;42.524;12.052;2023-07-13T12:47:57;96757.75;;;30.16;100.00
56944;BME280;42848;42.524;12.052;2023-07-13T12:50:34;96760.88;;;29.93;100.00
56944;BME280;42848;42.524;12.052;2023-07-13T12:53:04;96763.16;;;30.23;100.00
56944;BME280;42848;42.524;12.052;2023-07-13T12:55:54;96761.44;;;30.26;100.00
56944;BME280;42848;42.524;12.052;2023-07-13T13:00:58;96768.13;;;30.54;100.00
56944;BME280;42848;42.524;12.052;2023-07-13T13:08:40;96756.09;;;30.92;100.00
56944;BME280;42848;42.524;12.052;2023-07-13T13:11:08;96747.53;;;31.30;100.00
56944;BME280;42848;42.524;12.052;2023-07-13T13:13:35;96761.31;;;30.55;100.00
56944;BME280;42848;42.524;12.052;2023-07-13T13:18:51;96766.72;;;30.97;100.00
56944;BME280;42848;42.524;12.052;2023-07-13T13:21:18;96764.66;;;30.75;100.00
56944;BME280;42848;42.524;12.052;2023-07-13T13:23:44;96768.88;;;30.93;100.00
56944;BME280;42848;42.524;12.052;2023-07-13T13:26:13;96760.91;;;31.48;100.00
56944;BME280;42848;42.524;12.052;2023-07-13T13:28:42;96752.84;;;30.93;100.00
56944;BME280;42848;42.524;12.052;2023-07-13T13:31:10;96766.00;;;30.83;100.00
56944;BME280;42848;42.524;12.052;2023-07-13T13:33:42;96755.97;;;31.17;100.00
56944;BME280;42848;42.524;12.052;2023-07-13T13:36:20;96757.00;;;31.23;100.00
56944;BME280;42848;42.524;12.052;2023-07-13T13:38:49;96748.81;;;31.16;100.00
56944;BME280;42848;42.524;12.052;2023-07-13T13:41:15;96735.78;;;31.44;100.00